LEBZ/BJZ METAR and TAF weather

Enter ICAO airport designator
Station Type Date Time Source
LEBZ METAR 2020/09/27 17:30 UTC NOAA

LEBZ 271730Z 31006KT 280V340 CAVOK 27/09 Q1014


Station Type Date Time Source
LEBZ Decoded METAR 2020/09/27 17:30 UTC NOAA

Badajoz / Talavera La Real, Spain (LEBZ) 38-53N 006-49W 192M
Sep 27, 2020 - 01:30 PM EDT / 2020.09.27 1730 UTC
Wind: from the NW (310 degrees) at 7 MPH (6 KT) (direction variable):0
Visibility: greater than 7 mile(s):0
Temperature: 80 F (27 C)
Dew Point: 48 F (9 C)
Relative Humidity: 32%
Pressure (altimeter): 29.94 in. Hg (1014 hPa)
ob: LEBZ 271730Z 31006KT 280V340 CAVOK 27/09 Q1014
cycle: 17

Station Type Date Time Source
LEBZ TAF 2020/09/27 18:27 UTC NOAA

TAF LEBZ 271700Z 2718/2818 36006KT CAVOK TX29/2815Z TN12/2806Z

Example: see airport list